createdAt,value
2023-03-04T00:00:02.537Z,102547.47
2023-03-04T00:02:29.248Z,102543.88
2023-03-04T00:04:58.557Z,102554.44
2023-03-04T00:07:25.882Z,102551.78
2023-03-04T00:09:53.091Z,102552.63
2023-03-04T00:12:19.806Z,102552.53
2023-03-04T00:14:46.883Z,102551.78
2023-03-04T00:17:15.123Z,102552.75
2023-03-04T00:19:41.986Z,102550.22
2023-03-04T00:22:08.737Z,102555.41
2023-03-04T00:24:35.525Z,102548.41
2023-03-04T00:27:02.371Z,102545.88
2023-03-04T00:29:29.221Z,102550.09
2023-03-04T00:31:56.225Z,102544.94
2023-03-04T00:34:24.791Z,102547.84
2023-03-04T00:36:51.486Z,102550.47
2023-03-04T00:39:18.262Z,102549.50
2023-03-04T00:41:45.057Z,102544.34
2023-03-04T00:44:19.193Z,102540.00
2023-03-04T00:46:45.944Z,102541.94
2023-03-04T00:49:12.672Z,102549.75
2023-03-04T00:51:40.981Z,102542.75
2023-03-04T00:54:07.696Z,102548.06
2023-03-04T00:56:35.811Z,102542.75
2023-03-04T00:59:02.523Z,102545.41
2023-03-04T01:01:30.799Z,102541.94
2023-03-04T01:03:57.911Z,102539.53
2023-03-04T01:06:24.625Z,102542.19
2023-03-04T01:08:53.658Z,102543.84
2023-03-04T01:11:21.803Z,102540.50
2023-03-04T01:13:50.966Z,102546.63
2023-03-04T01:16:17.813Z,102549.00
2023-03-04T01:18:45.212Z,102538.53
2023-03-04T01:21:11.934Z,102540.50
2023-03-04T01:23:38.632Z,102536.16
2023-03-04T01:26:06.733Z,102532.56
2023-03-04T01:28:35.917Z,102541.34
2023-03-04T01:31:02.994Z,102537.84
2023-03-04T01:33:30.073Z,102529.06
2023-03-04T01:35:57.312Z,102529.19
2023-03-04T01:38:24.058Z,102533.41
2023-03-04T01:40:51.933Z,102525.47
2023-03-04T01:43:24.482Z,102527.28
2023-03-04T01:45:52.736Z,102520.31
2023-03-04T01:48:24.600Z,102515.75
2023-03-04T01:50:51.592Z,102519.34
2023-03-04T01:53:23.296Z,102514.91
2023-03-04T01:55:50.132Z,102514.91
2023-03-04T01:58:16.973Z,102514.91
2023-03-04T02:00:45.155Z,102513.09
2023-03-04T02:03:15.358Z,102518.50
2023-03-04T02:05:45.312Z,102508.78
2023-03-04T02:08:13.561Z,102500.72
2023-03-04T02:10:43.215Z,102497.25
2023-03-04T02:13:10.936Z,102490.38
2023-03-04T02:15:37.811Z,102496.63
2023-03-04T02:18:14.542Z,102480.88
2023-03-04T02:20:49.032Z,102481.72
2023-03-04T02:23:22.808Z,102489.91
2023-03-04T02:25:53.037Z,102489.91
2023-03-04T02:28:22.214Z,102491.47
2023-03-04T02:30:48.984Z,102478.13
2023-03-04T02:33:17.810Z,102482.56
2023-03-04T02:35:44.986Z,102484.25
2023-03-04T02:38:12.616Z,102482.56
2023-03-04T02:40:42.350Z,102479.81
2023-03-04T02:43:11.459Z,102477.19
2023-03-04T02:45:42.737Z,102478.25
2023-03-04T02:48:10.522Z,102493.41
2023-03-04T02:50:41.712Z,102467.19
2023-03-04T02:53:08.529Z,102464.66
2023-03-04T02:55:35.767Z,102466.34
2023-03-04T02:58:03.015Z,102463.59
2023-03-04T03:00:30.350Z,102463.59
2023-03-04T03:02:58.616Z,102460.00
2023-03-04T03:05:27.219Z,102454.72
2023-03-04T03:07:53.990Z,102452.78
2023-03-04T03:10:21.032Z,102452.06
2023-03-04T03:12:47.849Z,102451.94
2023-03-04T03:15:15.138Z,102444.16
2023-03-04T03:17:42.059Z,102442.47
2023-03-04T03:20:12.454Z,102449.53
2023-03-04T03:22:39.400Z,102439.81
2023-03-04T03:25:07.588Z,102434.44
2023-03-04T03:27:34.328Z,102435.28
2023-03-04T03:30:01.155Z,102432.47
2023-03-04T03:32:27.905Z,102432.38
2023-03-04T03:34:54.729Z,102423.47
2023-03-04T03:37:22.795Z,102421.78
2023-03-04T03:39:49.502Z,102422.63
2023-03-04T03:42:16.349Z,102419.88
2023-03-04T03:44:43.062Z,102426.00
2023-03-04T03:47:09.732Z,102423.47
2023-03-04T03:49:36.463Z,102435.84
2023-03-04T03:52:03.395Z,102433.31
2023-03-04T03:54:31.438Z,102436.94
2023-03-04T03:56:58.235Z,102437.19
2023-03-04T03:59:25.091Z,102439.94
2023-03-04T04:01:51.854Z,102439.09
2023-03-04T04:04:18.762Z,102442.56
2023-03-04T04:06:45.558Z,102441.72
2023-03-04T04:09:12.311Z,102436.44
2023-03-04T04:11:40.508Z,102433.81
2023-03-04T04:14:07.274Z,102436.44
2023-03-04T04:16:34.119Z,102431.91
2023-03-04T04:19:01.009Z,102440.56
2023-03-04T04:21:27.786Z,102439.72
2023-03-04T04:23:54.480Z,102437.91
2023-03-04T04:26:21.278Z,102435.28
2023-03-04T04:28:50.663Z,102435.38
2023-03-04T04:31:17.426Z,102431.91
2023-03-04T04:33:44.101Z,102437.19
2023-03-04T04:36:14.539Z,102438.03
2023-03-04T04:38:41.417Z,102432.75
2023-03-04T04:41:19.192Z,102435.50
2023-03-04T04:43:45.965Z,102438.25
2023-03-04T04:46:14.550Z,102430.44
2023-03-04T04:48:41.329Z,102433.06
2023-03-04T04:51:08.137Z,102435.59
2023-03-04T04:53:35.426Z,102432.84
2023-03-04T04:56:09.050Z,102437.19
2023-03-04T04:58:36.775Z,102439.72
2023-03-04T05:01:04.889Z,102443.19
2023-03-04T05:03:33.780Z,102441.38
2023-03-04T05:06:01.010Z,102440.56
2023-03-04T05:08:27.977Z,102434.28
2023-03-04T05:10:54.803Z,102443.19
2023-03-04T05:13:21.624Z,102441.38
2023-03-04T05:15:50.746Z,102441.50
2023-03-04T05:18:17.549Z,102434.53
2023-03-04T05:20:45.781Z,102443.31
2023-03-04T05:23:12.581Z,102437.19
2023-03-04T05:25:39.339Z,102441.63
2023-03-04T05:28:07.289Z,102434.66
2023-03-04T05:30:34.047Z,102439.34
2023-03-04T05:33:00.766Z,102437.66
2023-03-04T05:35:29.079Z,102437.66
2023-03-04T05:37:57.496Z,102436.56
2023-03-04T05:40:25.800Z,102439.09
2023-03-04T05:42:52.660Z,102444.50
2023-03-04T05:45:19.397Z,102439.34
2023-03-04T05:47:46.154Z,102447.13
2023-03-04T05:50:12.915Z,102448.94
2023-03-04T05:52:39.710Z,102442.94
2023-03-04T05:55:09.270Z,102457.22
2023-03-04T05:57:35.965Z,102451.09
2023-03-04T06:00:05.510Z,102455.44
2023-03-04T06:02:32.218Z,102449.06
2023-03-04T06:04:59.021Z,102450.88
2023-03-04T06:07:25.688Z,102446.28
2023-03-04T06:09:52.389Z,102451.94
2023-03-04T06:12:20.993Z,102446.88
2023-03-04T06:14:47.945Z,102448.44
2023-03-04T06:17:14.742Z,102444.84
2023-03-04T06:19:44.474Z,102454.59
2023-03-04T06:22:11.263Z,102454.69
2023-03-04T06:24:38.494Z,102448.44
2023-03-04T06:27:05.239Z,102451.81
2023-03-04T06:29:33.432Z,102453.38
2023-03-04T06:32:00.236Z,102453.25
2023-03-04T06:34:28.238Z,102456.53
2023-03-04T06:36:54.945Z,102453.88
2023-03-04T06:39:21.829Z,102454.84
2023-03-04T06:41:48.802Z,102455.69
2023-03-04T06:44:15.512Z,102458.22
2023-03-04T06:46:43.846Z,102462.38
2023-03-04T06:49:10.606Z,102470.22
2023-03-04T06:51:37.409Z,102456.16
2023-03-04T06:54:04.304Z,102457.84
2023-03-04T06:56:31.542Z,102455.19
2023-03-04T06:58:58.677Z,102461.31
2023-03-04T07:01:27.836Z,102455.94
2023-03-04T07:03:57.236Z,102458.56
2023-03-04T07:06:26.199Z,102462.06
2023-03-04T07:08:53.270Z,102456.88
2023-03-04T07:11:21.986Z,102460.38
2023-03-04T07:13:49.226Z,102464.69
2023-03-04T07:16:18.134Z,102469.13
2023-03-04T07:18:45.223Z,102474.28
2023-03-04T07:21:14.259Z,102469.84
2023-03-04T07:23:41.576Z,102470.81
2023-03-04T07:26:08.413Z,102465.53
2023-03-04T07:28:38.588Z,102470.94
2023-03-04T07:31:11.709Z,102474.53
2023-03-04T07:33:38.623Z,102467.78
2023-03-04T07:36:05.968Z,102478.25
2023-03-04T07:38:34.420Z,102471.16
2023-03-04T07:41:02.409Z,102476.44
2023-03-04T07:43:29.263Z,102477.41
2023-03-04T07:46:00.831Z,102477.53
2023-03-04T07:48:28.082Z,102476.56
2023-03-04T07:51:09.256Z,102474.75
2023-03-04T07:53:39.748Z,102477.28
2023-03-04T07:56:08.621Z,102481.50
2023-03-04T07:58:35.819Z,102471.78
2023-03-04T08:01:09.443Z,102480.41
2023-03-04T08:03:37.717Z,102488.13
2023-03-04T08:06:06.209Z,102489.69
2023-03-04T08:08:33.041Z,102492.06
2023-03-04T08:11:04.256Z,102483.91
2023-03-04T08:13:31.861Z,102489.78
2023-03-04T08:16:01.701Z,102488.72
2023-03-04T08:18:28.444Z,102498.91
2023-03-04T08:20:58.517Z,102494.25
2023-03-04T08:23:25.368Z,102493.16
2023-03-04T08:25:53.353Z,102491.22
2023-03-04T08:28:21.451Z,102494.59
2023-03-04T08:30:53.054Z,102495.34
2023-03-04T08:33:20.371Z,102498.69
2023-03-04T08:35:47.257Z,102504.59
2023-03-04T08:38:14.065Z,102503.38
2023-03-04T08:40:40.908Z,102504.09
2023-03-04T08:43:07.653Z,102497.72
2023-03-04T08:45:35.765Z,102496.63
2023-03-04T08:48:02.512Z,102495.56
2023-03-04T08:50:29.225Z,102493.50
2023-03-04T08:52:55.883Z,102494.09
2023-03-04T08:55:22.716Z,102487.69
2023-03-04T08:57:49.473Z,102491.91
2023-03-04T09:00:18.723Z,102488.06
2023-03-04T09:02:46.753Z,102490.47
2023-03-04T09:05:13.442Z,102497.56
2023-03-04T09:07:41.468Z,102490.47
2023-03-04T09:10:11.857Z,102492.88
2023-03-04T09:12:38.637Z,102498.84
2023-03-04T09:15:11.579Z,102492.72
2023-03-04T09:17:39.403Z,102488.28
2023-03-04T09:20:11.690Z,102489.00
2023-03-04T09:22:39.325Z,102490.69
2023-03-04T09:25:11.039Z,102487.81
2023-03-04T09:27:39.504Z,102490.19
2023-03-04T09:30:07.475Z,102486.47
2023-03-04T09:32:34.448Z,102486.47
2023-03-04T09:35:01.353Z,102484.03
2023-03-04T09:37:29.443Z,102483.09
2023-03-04T09:39:56.301Z,102480.44
2023-03-04T09:42:27.064Z,102477.91
2023-03-04T09:44:54.682Z,102481.50
2023-03-04T09:47:24.026Z,102479.88
2023-03-04T09:49:56.454Z,102482.97
2023-03-04T09:52:38.024Z,102474.06
2023-03-04T09:55:14.220Z,102474.94
2023-03-04T09:57:51.317Z,102476.38
2023-03-04T10:00:20.486Z,102471.66
2023-03-04T10:03:03.995Z,102464.44
2023-03-04T10:05:34.526Z,102465.00
2023-03-04T10:08:17.438Z,102470.06
2023-03-04T10:10:45.862Z,102457.28
2023-03-04T10:13:18.337Z,102450.53
2023-03-04T10:15:51.235Z,102453.38
2023-03-04T10:18:22.710Z,102456.34
2023-03-04T10:20:56.438Z,102457.81
2023-03-04T10:23:26.590Z,102453.91
2023-03-04T10:25:54.465Z,102455.06
2023-03-04T10:28:25.902Z,102455.53
2023-03-04T10:30:59.400Z,102448.06
2023-03-04T10:33:28.162Z,102451.13
2023-03-04T10:36:01.884Z,102448.25
2023-03-04T10:38:32.375Z,102448.97
2023-03-04T10:40:59.862Z,102454.25
2023-03-04T10:43:28.178Z,102447.88
2023-03-04T10:45:57.780Z,102446.19
2023-03-04T10:48:31.718Z,102435.47
2023-03-04T10:51:13.512Z,102435.72
2023-03-04T10:53:43.255Z,102434.88
2023-03-04T10:56:38.485Z,102430.41
2023-03-04T10:59:31.126Z,102434.19
2023-03-04T11:01:58.145Z,102429.56
2023-03-04T11:04:26.724Z,102433.50
2023-03-04T11:06:53.865Z,102421.69
2023-03-04T11:09:24.656Z,102426.47
2023-03-04T11:11:52.986Z,102428.03
2023-03-04T11:14:24.911Z,102422.44
2023-03-04T11:16:53.758Z,102422.44
2023-03-04T11:19:25.042Z,102417.84
2023-03-04T11:21:53.039Z,102421.06
2023-03-04T11:24:29.521Z,102416.03
2023-03-04T11:27:04.112Z,102421.34
2023-03-04T11:29:36.299Z,102419.41
2023-03-04T11:32:09.469Z,102413.81
2023-03-04T11:34:41.425Z,102414.97
2023-03-04T11:37:12.519Z,102402.16
2023-03-04T11:39:46.198Z,102402.59
2023-03-04T11:42:20.805Z,102403.75
2023-03-04T11:44:47.595Z,102389.09
2023-03-04T11:47:37.818Z,102393.03
2023-03-04T11:50:23.507Z,102378.25
2023-03-04T11:53:26.206Z,102379.38
2023-03-04T11:56:10.662Z,102370.84
2023-03-04T11:59:02.418Z,102379.53
2023-03-04T12:01:38.384Z,102366.00
2023-03-04T12:04:20.587Z,102368.34
2023-03-04T12:07:00.974Z,102369.06
2023-03-04T12:09:42.803Z,102369.63
2023-03-04T12:12:29.567Z,102372.84
2023-03-04T12:15:08.129Z,102369.06
2023-03-04T12:17:45.458Z,102362.03
2023-03-04T12:20:40.768Z,102364.66
2023-03-04T12:23:25.035Z,102368.69
2023-03-04T12:25:56.773Z,102359.34
2023-03-04T12:28:39.330Z,102352.78
2023-03-04T12:31:30.625Z,102355.72
2023-03-04T12:34:30.050Z,102354.50
2023-03-04T12:37:35.515Z,102350.59
2023-03-04T12:40:20.840Z,102350.72
2023-03-04T12:43:03.928Z,102346.13
2023-03-04T12:45:41.672Z,102342.63
2023-03-04T12:48:18.729Z,102339.97
2023-03-04T12:50:57.445Z,102357.69
2023-03-04T12:53:30.359Z,102355.59
2023-03-04T12:55:59.169Z,102355.56
2023-03-04T12:58:28.671Z,102352.06
2023-03-04T13:01:04.648Z,102348.28
2023-03-04T13:03:42.839Z,102342.53
2023-03-04T13:06:21.470Z,102335.94
2023-03-04T13:08:59.011Z,102337.63
2023-03-04T13:11:47.257Z,102329.22
2023-03-04T13:14:31.124Z,102332.81
2023-03-04T13:17:02.520Z,102322.38
2023-03-04T13:19:49.097Z,102322.50
2023-03-04T13:22:44.656Z,102311.78
2023-03-04T13:25:32.021Z,102311.25
2023-03-04T13:28:46.658Z,102313.22
2023-03-04T13:31:17.687Z,102309.75
2023-03-04T13:33:58.840Z,102307.97
2023-03-04T13:36:54.990Z,102307.56
2023-03-04T13:39:33.046Z,102299.47
2023-03-04T13:42:02.852Z,102303.53
2023-03-04T13:44:52.574Z,102296.25
2023-03-04T13:47:22.713Z,102297.22
2023-03-04T13:50:10.857Z,102299.63
2023-03-04T13:52:40.192Z,102303.13
2023-03-04T13:55:34.795Z,102303.97
2023-03-04T13:58:02.202Z,102299.88
2023-03-04T14:00:29.885Z,102307.16
2023-03-04T14:02:56.948Z,102308.97
2023-03-04T14:05:25.083Z,102298.75
2023-03-04T14:07:51.780Z,102297.09
2023-03-04T14:10:24.576Z,102298.91
2023-03-04T14:12:53.946Z,102302.53
2023-03-04T14:15:24.441Z,102301.00
2023-03-04T14:17:53.326Z,102307.00
2023-03-04T14:20:30.280Z,102298.34
2023-03-04T14:22:58.423Z,102302.25
2023-03-04T14:25:28.527Z,102293.84
2023-03-04T14:28:09.630Z,102290.50
2023-03-04T14:30:42.639Z,102297.50
2023-03-04T14:33:16.153Z,102301.13
2023-03-04T14:35:48.621Z,102286.88
2023-03-04T14:38:21.864Z,102288.00
2023-03-04T14:40:52.615Z,102283.78
2023-03-04T14:43:20.860Z,102280.03
2023-03-04T14:45:51.581Z,102274.16
2023-03-04T14:48:22.058Z,102278.66
2023-03-04T14:50:51.767Z,102278.66
2023-03-04T14:53:20.364Z,102275.16
2023-03-04T14:55:58.797Z,102277.09
2023-03-04T14:58:27.174Z,102278.06
2023-03-04T15:01:16.658Z,102269.28
2023-03-04T15:03:46.120Z,102264.94
2023-03-04T15:06:18.498Z,102274.56
2023-03-04T15:08:47.124Z,102261.91
2023-03-04T15:11:23.578Z,102261.34
2023-03-04T15:13:53.609Z,102256.59
2023-03-04T15:16:23.487Z,102246.59
2023-03-04T15:18:55.477Z,102251.03
2023-03-04T15:21:33.674Z,102245.31
2023-03-04T15:24:00.922Z,102246.88
2023-03-04T15:26:27.754Z,102248.69
2023-03-04T15:28:54.535Z,102250.50
2023-03-04T15:31:23.186Z,102244.47
2023-03-04T15:33:53.341Z,102238.34
2023-03-04T15:36:24.274Z,102241.97
2023-03-04T15:38:54.134Z,102241.41
2023-03-04T15:41:24.377Z,102236.25
2023-03-04T15:43:51.390Z,102237.38
2023-03-04T15:46:18.264Z,102241.00
2023-03-04T15:48:46.119Z,102238.47
2023-03-04T15:51:15.065Z,102234.97
2023-03-04T15:53:44.830Z,102240.53
2023-03-04T15:56:17.331Z,102240.00
2023-03-04T15:58:47.997Z,102242.91
2023-03-04T16:01:19.623Z,102251.00
2023-03-04T16:03:46.662Z,102243.19
2023-03-04T16:06:15.681Z,102257.41
2023-03-04T16:08:43.114Z,102250.69
2023-03-04T16:11:15.633Z,102247.47
2023-03-04T16:13:42.441Z,102249.44
2023-03-04T16:16:12.770Z,102248.00
2023-03-04T16:18:40.475Z,102249.09
2023-03-04T16:21:11.855Z,102247.41
2023-03-04T16:23:41.085Z,102245.19
2023-03-04T16:26:17.468Z,102247.13
2023-03-04T16:28:44.269Z,102246.28
2023-03-04T16:31:12.249Z,102238.63
2023-03-04T16:33:39.043Z,102233.44
2023-03-04T16:36:14.419Z,102232.59
2023-03-04T16:38:41.854Z,102231.50
2023-03-04T16:41:13.217Z,102228.88
2023-03-04T16:43:42.894Z,102231.50
2023-03-04T16:46:11.982Z,102227.06
2023-03-04T16:48:38.850Z,102230.66
2023-03-04T16:51:13.766Z,102234.16
2023-03-04T16:53:42.164Z,102242.22
2023-03-04T16:56:12.706Z,102238.03
2023-03-04T16:58:41.075Z,102239.28
2023-03-04T17:01:17.735Z,102243.56
2023-03-04T17:03:44.584Z,102250.22
2023-03-04T17:06:11.517Z,102242.81
2023-03-04T17:08:38.403Z,102239.88
2023-03-04T17:11:05.474Z,102248.06
2023-03-04T17:13:32.183Z,102251.22
2023-03-04T17:16:02.519Z,102253.16
2023-03-04T17:18:29.968Z,102253.69
2023-03-04T17:21:02.429Z,102255.75
2023-03-04T17:23:29.664Z,102246.84
2023-03-04T17:25:57.183Z,102251.16
2023-03-04T17:28:24.089Z,102252.53
2023-03-04T17:30:50.764Z,102252.78
2023-03-04T17:33:18.881Z,102253.78
2023-03-04T17:35:46.278Z,102254.59
2023-03-04T17:38:16.170Z,102249.56
2023-03-04T17:40:43.823Z,102255.72
2023-03-04T17:43:13.974Z,102263.66
2023-03-04T17:45:42.079Z,102261.25
2023-03-04T17:48:14.855Z,102262.19
2023-03-04T17:50:48.687Z,102265.69
2023-03-04T17:53:15.355Z,102265.84
2023-03-04T17:55:49.178Z,102265.13
2023-03-04T17:58:15.827Z,102258.03
2023-03-04T18:00:42.892Z,102256.34
2023-03-04T18:03:12.345Z,102260.06
2023-03-04T18:05:39.460Z,102254.53
2023-03-04T18:08:07.880Z,102265.69
2023-03-04T18:10:34.801Z,102266.53
2023-03-04T18:13:01.584Z,102259.56
2023-03-04T18:15:29.826Z,102268.50
2023-03-04T18:17:56.632Z,102277.75
2023-03-04T18:20:23.578Z,102284.53
2023-03-04T18:22:50.447Z,102287.81
2023-03-04T18:25:18.816Z,102281.34
2023-03-04T18:27:45.541Z,102274.88
2023-03-04T18:30:17.638Z,102278.53
2023-03-04T18:32:51.808Z,102284.63
2023-03-04T18:35:19.781Z,102284.03
2023-03-04T18:37:46.599Z,102278.16
2023-03-04T18:40:14.601Z,102285.50
2023-03-04T18:42:44.300Z,102276.75
2023-03-04T18:45:12.621Z,102284.78
2023-03-04T18:47:40.624Z,102282.28
2023-03-04T18:50:09.145Z,102277.25
2023-03-04T18:52:36.226Z,102284.72
2023-03-04T18:55:03.082Z,102275.34
2023-03-04T18:57:30.177Z,102279.09
2023-03-04T18:59:59.916Z,102282.44
2023-03-04T19:02:30.256Z,102280.06
2023-03-04T19:05:01.329Z,102281.03
2023-03-04T19:07:28.056Z,102284.38
2023-03-04T19:09:54.744Z,102289.41
2023-03-04T19:12:21.475Z,102291.09
2023-03-04T19:14:48.467Z,102280.28
2023-03-04T19:17:16.677Z,102279.28
2023-03-04T19:19:43.468Z,102281.09
2023-03-04T19:22:11.096Z,102276.91
2023-03-04T19:24:37.961Z,102281.47
2023-03-04T19:27:05.674Z,102278.25
2023-03-04T19:29:32.391Z,102275.47
2023-03-04T19:31:59.084Z,102283.41
2023-03-04T19:34:27.215Z,102278.00
2023-03-04T19:36:53.978Z,102276.47
2023-03-04T19:39:20.763Z,102269.00
2023-03-04T19:41:47.566Z,102274.28
2023-03-04T19:44:14.344Z,102272.63
2023-03-04T19:46:41.201Z,102267.34
2023-03-04T19:49:10.006Z,102264.72
2023-03-04T19:51:38.157Z,102265.50
2023-03-04T19:54:04.974Z,102261.78
2023-03-04T19:56:31.725Z,102264.31
2023-03-04T19:58:59.352Z,102258.91
2023-03-04T20:01:28.457Z,102257.97
2023-03-04T20:03:56.430Z,102263.25
2023-03-04T20:06:24.030Z,102261.28
2023-03-04T20:09:09.064Z,102265.63
2023-03-04T20:11:41.467Z,102267.69
2023-03-04T20:14:17.703Z,102264.44
2023-03-04T20:16:44.475Z,102266.97
2023-03-04T20:19:11.259Z,102264.31
2023-03-04T20:21:38.786Z,102266.00
2023-03-04T20:24:07.253Z,102265.88
2023-03-04T20:26:34.015Z,102258.91
2023-03-04T20:29:01.069Z,102263.09
2023-03-04T20:31:30.956Z,102261.56
2023-03-04T20:33:59.366Z,102267.81
2023-03-04T20:36:29.466Z,102265.03
2023-03-04T20:39:02.456Z,102264.19
2023-03-04T20:41:34.600Z,102272.81
2023-03-04T20:44:01.671Z,102275.34
2023-03-04T20:46:33.162Z,102267.41
2023-03-04T20:49:01.640Z,102271.75
2023-03-04T20:51:29.288Z,102275.47
2023-03-04T20:53:56.552Z,102271.97
2023-03-04T20:56:24.045Z,102267.53
2023-03-04T20:58:54.230Z,102271.16
2023-03-04T21:01:23.023Z,102272.13
2023-03-04T21:03:50.035Z,102265.16
2023-03-04T21:06:16.865Z,102267.91
2023-03-04T21:08:44.197Z,102268.75
2023-03-04T21:11:12.431Z,102268.03
2023-03-04T21:13:42.969Z,102262.06
2023-03-04T21:16:17.811Z,102259.53
2023-03-04T21:18:45.306Z,102251.28
2023-03-04T21:21:14.070Z,102259.44
2023-03-04T21:23:41.286Z,102257.28
2023-03-04T21:26:08.526Z,102253.94
2023-03-04T21:28:35.544Z,102252.50
2023-03-04T21:31:03.552Z,102245.66
2023-03-04T21:33:39.584Z,102248.19
2023-03-04T21:36:06.836Z,102235.94
2023-03-04T21:38:34.058Z,102240.38
2023-03-04T21:41:00.742Z,102240.63
2023-03-04T21:43:28.946Z,102249.63
2023-03-04T21:45:57.235Z,102247.94
2023-03-04T21:48:25.050Z,102238.47
2023-03-04T21:50:55.768Z,102231.38
2023-03-04T21:53:24.197Z,102231.25
2023-03-04T21:55:53.238Z,102236.53
2023-03-04T21:58:20.208Z,102234.75
2023-03-04T22:00:49.455Z,102229.56
2023-03-04T22:03:16.370Z,102228.72
2023-03-04T22:05:44.996Z,102223.72
2023-03-04T22:08:13.515Z,102221.31
2023-03-04T22:10:41.047Z,102222.53
2023-03-04T22:13:10.555Z,102221.91
2023-03-04T22:15:38.887Z,102220.25
2023-03-04T22:18:07.988Z,102224.72
2023-03-04T22:20:35.868Z,102224.09
2023-03-04T22:23:02.780Z,102216.06
2023-03-04T22:25:34.381Z,102219.78
2023-03-04T22:28:02.741Z,102209.22
2023-03-04T22:30:30.616Z,102221.56
2023-03-04T22:32:57.620Z,102225.06
2023-03-04T22:35:24.721Z,102213.91
2023-03-04T22:37:51.732Z,102219.41
2023-03-04T22:40:20.343Z,102221.34
2023-03-04T22:42:48.809Z,102217.16
2023-03-04T22:45:17.519Z,102217.66
2023-03-04T22:47:47.949Z,102216.91
2023-03-04T22:50:14.655Z,102217.03
2023-03-04T22:52:41.893Z,102206.84
2023-03-04T22:55:09.616Z,102205.91
2023-03-04T22:57:36.544Z,102203.25
2023-03-04T23:00:15.866Z,102201.47
2023-03-04T23:02:42.743Z,102198.09
2023-03-04T23:05:10.640Z,102188.50
2023-03-04T23:07:39.324Z,102183.31
2023-03-04T23:10:09.896Z,102187.66
2023-03-04T23:12:36.653Z,102188.50
2023-03-04T23:15:08.826Z,102185.84
2023-03-04T23:17:36.270Z,102187.66
2023-03-04T23:20:04.395Z,102180.56
2023-03-04T23:22:31.137Z,102178.78
2023-03-04T23:24:57.832Z,102175.19
2023-03-04T23:27:24.965Z,102176.97
2023-03-04T23:29:52.061Z,102175.28
2023-03-04T23:32:20.216Z,102176.38
2023-03-04T23:34:52.961Z,102169.28
2023-03-04T23:37:20.891Z,102169.28
2023-03-04T23:39:47.904Z,102163.31
2023-03-04T23:42:15.042Z,102165.97
2023-03-04T23:44:42.154Z,102165.81
2023-03-04T23:47:09.323Z,102161.38
2023-03-04T23:49:37.590Z,102159.69
2023-03-04T23:52:04.755Z,102160.69
2023-03-04T23:54:31.691Z,102164.97
2023-03-04T23:57:00.072Z,102157.06
2023-03-04T23:59:27.425Z,102157.78
